Time;durP1;ratioP1;P1;durP2;ratioP2;P2;SDS_P1;SDS_P2;PMS_P1;PMS_P2;Temp;Humidity;BMP_temperature;BMP_pressure;BME280_temperature;BME280_humidity;BME280_pressure;Samples;Min_cycle;Max_cycle;Signal;HPM_P1;HPM_P2
2023/02/04 00:01:26;;;;;;;33.83;5.23;;;;;;;;;;5034584;28;20208;-66
2023/02/04 00:03:51;;;;;;;41.07;5.57;;;;;;;;;;5043105;28;20239;-66
2023/02/04 00:06:17;;;;;;;40.17;5.70;;;;;;;;;;5045820;28;20185;-66
2023/02/04 00:08:42;;;;;;;45.20;5.97;;;;;;;;;;5033282;28;20257;-66
2023/02/04 00:11:08;;;;;;;35.53;5.33;;;;;;;;;;5033108;28;20555;-66
2023/02/04 00:13:33;;;;;;;37.80;6.37;;;;;;;;;;5028698;28;20182;-66
2023/02/04 00:15:58;;;;;;;53.03;7.20;;;;;;;;;;5029302;28;20662;-66
2023/02/04 00:18:24;;;;;;;45.53;6.03;;;;;;;;;;5020898;28;20219;-66
2023/02/04 00:20:49;;;;;;;37.80;6.57;;;;;;;;;;5015916;28;20199;-66
2023/02/04 00:23:14;;;;;;;41.13;5.33;;;;;;;;;;5024775;28;20625;-66
2023/02/04 00:25:40;;;;;;;32.33;6.37;;;;;;;;;;5025786;28;20252;-66
2023/02/04 00:28:05;;;;;;;45.60;5.77;;;;;;;;;;5026082;28;20229;-66
2023/02/04 00:30:31;;;;;;;41.27;6.10;;;;;;;;;;5022839;28;20197;-66
2023/02/04 00:32:57;;;;;;;36.27;5.40;;;;;;;;;;5034564;28;20234;-66
2023/02/04 00:35:23;;;;;;;33.10;5.00;;;;;;;;;;5016692;28;20727;-66
2023/02/04 00:37:49;;;;;;;43.43;5.07;;;;;;;;;;5035864;28;20212;-66
2023/02/04 00:40:14;;;;;;;42.63;5.57;;;;;;;;;;5024805;28;20678;-66
2023/02/04 00:42:40;;;;;;;33.80;5.43;;;;;;;;;;5021689;28;20211;-66
2023/02/04 00:45:05;;;;;;;34.63;5.43;;;;;;;;;;5022900;28;20198;-66
2023/02/04 00:47:31;;;;;;;41.23;6.57;;;;;;;;;;5023834;28;20206;-66
2023/02/04 00:49:56;;;;;;;43.07;5.67;;;;;;;;;;5039872;28;20195;-66
2023/02/04 00:52:22;;;;;;;34.27;5.30;;;;;;;;;;5026456;28;20198;-66
2023/02/04 00:54:48;;;;;;;37.07;6.00;;;;;;;;;;5015685;28;20554;-66
2023/02/04 00:57:13;;;;;;;39.40;4.50;;;;;;;;;;5019913;28;20670;-66
2023/02/04 00:59:39;;;;;;;39.57;5.17;;;;;;;;;;5027146;28;20192;-66
2023/02/04 01:02:04;;;;;;;44.23;5.23;;;;;;;;;;5018114;28;20653;-66
2023/02/04 01:04:29;;;;;;;37.67;5.23;;;;;;;;;;5028522;28;20573;-66
2023/02/04 01:06:55;;;;;;;37.47;5.23;;;;;;;;;;5022540;28;20270;-66
2023/02/04 01:09:20;;;;;;;37.27;4.97;;;;;;;;;;5026104;28;20206;-66
2023/02/04 01:11:46;;;;;;;44.47;5.67;;;;;;;;;;5038287;28;20277;-66
2023/02/04 01:14:12;;;;;;;31.17;4.73;;;;;;;;;;5023257;28;20197;-66
2023/02/04 01:16:37;;;;;;;44.67;4.90;;;;;;;;;;5017209;28;20185;-66
2023/02/04 01:19:03;;;;;;;40.37;5.70;;;;;;;;;;5018803;28;20595;-66
2023/02/04 01:21:28;;;;;;;50.97;6.20;;;;;;;;;;5027523;28;20293;-66
2023/02/04 01:23:53;;;;;;;37.47;5.10;;;;;;;;;;5037721;28;20194;-67
2023/02/04 01:26:19;;;;;;;39.83;5.10;;;;;;;;;;5029056;28;20190;-66
2023/02/04 01:28:45;;;;;;;39.87;5.07;;;;;;;;;;5036460;28;20190;-67
2023/02/04 01:31:10;;;;;;;40.03;5.83;;;;;;;;;;5037004;28;20273;-66
2023/02/04 01:33:36;;;;;;;43.07;6.50;;;;;;;;;;5040766;28;20798;-66
2023/02/04 01:36:01;;;;;;;44.83;6.03;;;;;;;;;;5031349;28;20206;-66
2023/02/04 01:38:26;;;;;;;38.07;4.87;;;;;;;;;;5041629;28;20181;-66
2023/02/04 01:40:52;;;;;;;40.17;4.83;;;;;;;;;;5029701;28;20234;-66
2023/02/04 01:43:21;;;;;;;43.00;5.53;;;;;;;;;;5025382;28;20281;-66
2023/02/04 01:45:47;;;;;;;39.80;5.40;;;;;;;;;;5027317;28;20237;-66
2023/02/04 01:48:19;;;;;;;46.37;5.43;;;;;;;;;;5013919;28;20182;-66
2023/02/04 01:50:46;;;;;;;42.63;5.90;;;;;;;;;;5024069;28;20541;-67
2023/02/04 01:53:19;;;;;;;45.30;6.17;;;;;;;;;;5027973;28;20225;-67
2023/02/04 01:55:45;;;;;;;44.90;5.72;;;;;;;;;;5027872;28;20248;-66
2023/02/04 01:58:11;;;;;;;43.33;5.78;;;;;;;;;;5024980;28;20592;-67
2023/02/04 02:00:38;;;;;;;36.90;6.72;;;;;;;;;;5034099;28;20266;-66
2023/02/04 02:03:05;;;;;;;38.42;4.80;;;;;;;;;;5041970;28;20189;-67
2023/02/04 02:05:51;;;;;;;41.58;6.40;;;;;;;;;;5021069;28;20190;-66
2023/02/04 02:08:17;;;;;;;42.03;6.97;;;;;;;;;;5034794;28;20189;-66
2023/02/04 02:10:45;;;;;;;32.70;5.15;;;;;;;;;;5025645;28;20677;-66
2023/02/04 02:13:17;;;;;;;52.40;5.93;;;;;;;;;;5016299;28;20716;-67
2023/02/04 02:15:42;;;;;;;52.73;6.63;;;;;;;;;;5017844;28;20265;-67
2023/02/04 02:18:08;;;;;;;42.33;5.30;;;;;;;;;;5023940;28;20274;-67
2023/02/04 02:20:34;;;;;;;50.25;4.97;;;;;;;;;;5034793;28;20269;-67
2023/02/04 02:23:28;;;;;;;39.25;6.25;;;;;;;;;;5030495;28;20244;-67
2023/02/04 02:25:53;;;;;;;40.80;6.10;;;;;;;;;;5036009;28;20627;-67
2023/02/04 02:28:21;;;;;;;38.10;4.53;;;;;;;;;;5030754;28;20198;-64
2023/02/04 02:30:48;;;;;;;46.40;5.18;;;;;;;;;;5027980;28;20186;-65
2023/02/04 02:33:16;;;;;;;42.05;5.72;;;;;;;;;;5020975;28;20225;-65
2023/02/04 02:35:43;;;;;;;45.10;5.85;;;;;;;;;;5029199;28;20271;-65
2023/02/04 02:38:10;;;;;;;38.43;4.87;;;;;;;;;;5046046;28;20185;-65
2023/02/04 02:40:37;;;;;;;34.30;5.80;;;;;;;;;;5031350;28;20206;-65
2023/02/04 02:43:02;;;;;;;38.50;5.57;;;;;;;;;;5018607;28;20526;-65
2023/02/04 02:45:30;;;;;;;43.53;6.38;;;;;;;;;;5029808;28;20182;-66
2023/02/04 02:47:58;;;;;;;45.70;6.40;;;;;;;;;;5020847;28;20274;-66
2023/02/04 02:50:26;;;;;;;57.55;7.57;;;;;;;;;;5018672;28;20269;-65
2023/02/04 02:52:52;;;;;;;41.80;8.23;;;;;;;;;;5026560;28;20182;-65
2023/02/04 02:55:20;;;;;;;34.22;6.65;;;;;;;;;;5023318;28;20186;-66
2023/02/04 02:57:47;;;;;;;48.90;7.33;;;;;;;;;;5032292;28;20545;-65
2023/02/04 03:00:33;;;;;;;38.10;6.45;;;;;;;;;;5022900;28;20541;-65
2023/02/04 03:03:09;;;;;;;33.30;5.28;;;;;;;;;;5023562;28;20229;-65
2023/02/04 03:05:41;;;;;;;45.87;7.20;;;;;;;;;;5019490;28;20204;-66
2023/02/04 03:08:08;;;;;;;42.65;6.22;;;;;;;;;;5025474;28;20190;-65
2023/02/04 03:10:35;;;;;;;36.13;6.10;;;;;;;;;;5033715;28;20190;-65
2023/02/04 03:13:01;;;;;;;33.55;4.90;;;;;;;;;;5022157;28;20197;-66
2023/02/04 03:15:26;;;;;;;46.78;6.78;;;;;;;;;;5036859;28;20189;-65
2023/02/04 03:17:55;;;;;;;34.65;5.60;;;;;;;;;;5031465;28;20189;-66
2023/02/04 03:20:23;;;;;;;38.00;5.80;;;;;;;;;;5033572;28;20186;-65
2023/02/04 03:22:48;;;;;;;38.53;5.60;;;;;;;;;;5025174;28;20315;-65
2023/02/04 03:25:14;;;;;;;44.45;6.50;;;;;;;;;;5026164;28;20717;-66
2023/02/04 03:27:39;;;;;;;53.47;6.85;;;;;;;;;;5029151;28;20567;-65
2023/02/04 03:30:05;;;;;;;44.30;5.95;;;;;;;;;;5035717;28;20229;-65
2023/02/04 03:32:31;;;;;;;41.28;5.47;;;;;;;;;;5033963;28;20256;-65
2023/02/04 03:34:56;;;;;;;41.40;5.47;;;;;;;;;;5032592;28;20217;-65
2023/02/04 03:37:22;;;;;;;40.30;5.70;;;;;;;;;;5022337;28;20206;-65
2023/02/04 03:39:47;;;;;;;45.20;6.07;;;;;;;;;;5025349;28;20193;-65
2023/02/04 03:42:12;;;;;;;45.67;6.80;;;;;;;;;;5025232;28;20915;-65
2023/02/04 03:44:38;;;;;;;41.47;5.32;;;;;;;;;;5023558;28;20404;-66
2023/02/04 03:47:03;;;;;;;39.65;5.95;;;;;;;;;;5027583;28;20546;-66
2023/02/04 03:49:31;;;;;;;40.08;5.20;;;;;;;;;;5024256;28;20476;-66
2023/02/04 03:51:56;;;;;;;43.58;5.20;;;;;;;;;;5021474;28;20183;-66
2023/02/04 03:54:21;;;;;;;43.35;5.38;;;;;;;;;;5023403;28;20256;-66
2023/02/04 03:56:47;;;;;;;43.47;5.57;;;;;;;;;;5016401;28;20182;-66
2023/02/04 03:59:12;;;;;;;49.10;5.53;;;;;;;;;;5027590;28;20202;-66
2023/02/04 04:01:37;;;;;;;42.77;5.83;;;;;;;;;;5018140;28;20217;-64
2023/02/04 04:04:03;;;;;;;41.07;5.80;;;;;;;;;;5024175;28;20198;-67
2023/02/04 04:06:28;;;;;;;38.42;5.70;;;;;;;;;;5025930;28;20538;-66
2023/02/04 04:08:54;;;;;;;41.95;6.43;;;;;;;;;;5022862;28;20194;-65
2023/02/04 04:11:20;;;;;;;37.97;5.60;;;;;;;;;;5020854;28;20279;-66
2023/02/04 04:13:46;;;;;;;49.55;5.93;;;;;;;;;;5025649;28;20549;-65
2023/02/04 04:16:11;;;;;;;38.90;5.20;;;;;;;;;;5012928;28;20217;-67
2023/02/04 04:18:36;;;;;;;48.45;5.05;;;;;;;;;;5027617;28;20194;-65
2023/02/04 04:21:02;;;;;;;38.93;5.37;;;;;;;;;;5016613;28;20313;-66
2023/02/04 04:23:28;;;;;;;39.00;6.43;;;;;;;;;;5021258;28;20197;-66
2023/02/04 04:25:53;;;;;;;34.33;4.85;;;;;;;;;;5032455;28;20202;-65
2023/02/04 04:28:18;;;;;;;40.03;5.82;;;;;;;;;;5040323;28;20215;-65
2023/02/04 04:30:44;;;;;;;45.83;5.75;;;;;;;;;;5037476;28;20711;-65
2023/02/04 04:33:09;;;;;;;41.57;6.60;;;;;;;;;;5020456;28;20654;-65
2023/02/04 04:35:34;;;;;;;47.67;7.00;;;;;;;;;;5022776;28;20203;-65
2023/02/04 04:38:01;;;;;;;40.85;5.50;;;;;;;;;;5028495;28;20194;-65
2023/02/04 04:40:26;;;;;;;36.13;5.83;;;;;;;;;;5019445;28;20198;-65
2023/02/04 04:42:52;;;;;;;43.37;6.50;;;;;;;;;;5027895;28;20288;-66
2023/02/04 04:45:18;;;;;;;40.20;6.53;;;;;;;;;;5025913;28;20198;-66
2023/02/04 04:47:44;;;;;;;34.00;5.00;;;;;;;;;;5020997;28;20198;-65
2023/02/04 04:50:09;;;;;;;48.53;6.23;;;;;;;;;;5026925;28;20260;-66
2023/02/04 04:52:35;;;;;;;40.97;6.83;;;;;;;;;;5027180;28;20190;-65
2023/02/04 04:55:00;;;;;;;43.33;6.27;;;;;;;;;;5035955;28;20218;-65
2023/02/04 04:57:26;;;;;;;35.83;5.10;;;;;;;;;;5025888;28;20193;-65
2023/02/04 04:59:51;;;;;;;49.07;5.77;;;;;;;;;;5027760;28;20649;-66
2023/02/04 05:02:16;;;;;;;37.85;5.63;;;;;;;;;;5026458;28;20285;-66
2023/02/04 05:04:42;;;;;;;46.97;7.95;;;;;;;;;;5022871;28;20194;-66
2023/02/04 05:07:07;;;;;;;42.60;5.45;;;;;;;;;;5029000;28;20194;-66
2023/02/04 05:09:32;;;;;;;41.70;6.03;;;;;;;;;;5025531;28;20677;-66
2023/02/04 05:11:58;;;;;;;49.35;6.68;;;;;;;;;;5021156;28;20201;-66
2023/02/04 05:14:23;;;;;;;42.75;6.20;;;;;;;;;;5021951;28;20194;-66
2023/02/04 05:16:48;;;;;;;45.83;5.37;;;;;;;;;;5027756;28;20498;-65
2023/02/04 05:19:14;;;;;;;42.00;6.35;;;;;;;;;;5035452;28;20366;-66
2023/02/04 05:21:39;;;;;;;46.47;5.53;;;;;;;;;;5034358;28;20200;-66
2023/02/04 05:24:05;;;;;;;48.40;6.82;;;;;;;;;;5033029;28;20201;-66
2023/02/04 05:26:31;;;;;;;41.35;6.97;;;;;;;;;;5043700;28;20198;-66
2023/02/04 05:28:59;;;;;;;48.35;5.65;;;;;;;;;;5038855;28;20197;-65
2023/02/04 05:31:24;;;;;;;47.03;5.67;;;;;;;;;;5029294;28;20182;-65
2023/02/04 05:33:50;;;;;;;48.83;6.90;;;;;;;;;;5033662;28;20657;-65
2023/02/04 05:36:16;;;;;;;40.40;5.57;;;;;;;;;;5023924;28;20670;-65
2023/02/04 05:38:42;;;;;;;46.40;6.53;;;;;;;;;;5018233;28;20194;-65
2023/02/04 05:41:07;;;;;;;47.83;6.43;;;;;;;;;;5023924;28;20317;-65
2023/02/04 05:43:34;;;;;;;50.58;6.00;;;;;;;;;;5026657;28;20292;-66
2023/02/04 05:45:59;;;;;;;51.00;7.03;;;;;;;;;;5025283;28;20179;-66
2023/02/04 05:48:25;;;;;;;40.30;5.25;;;;;;;;;;5018179;28;20565;-66
2023/02/04 05:50:50;;;;;;;53.03;6.13;;;;;;;;;;5021564;28;20673;-65
2023/02/04 05:53:15;;;;;;;46.97;5.32;;;;;;;;;;5024438;28;20280;-65
2023/02/04 05:55:41;;;;;;;50.15;5.53;;;;;;;;;;5016549;28;20202;-66
2023/02/04 05:58:06;;;;;;;44.65;5.80;;;;;;;;;;5019825;28;20202;-66
2023/02/04 06:00:31;;;;;;;46.45;5.47;;;;;;;;;;5024534;28;20217;-66
2023/02/04 06:02:57;;;;;;;53.70;6.95;;;;;;;;;;5023471;28;20285;-66
2023/02/04 06:05:22;;;;;;;42.05;5.90;;;;;;;;;;5025265;28;20221;-66
2023/02/04 06:07:48;;;;;;;38.30;5.15;;;;;;;;;;5019358;28;20294;-66
2023/02/04 06:10:14;;;;;;;42.45;5.85;;;;;;;;;;5026391;28;20190;-66
2023/02/04 06:12:39;;;;;;;46.28;6.50;;;;;;;;;;5016361;28;20186;-66
2023/02/04 06:15:05;;;;;;;37.33;4.95;;;;;;;;;;5032094;28;20641;-66
2023/02/04 06:17:30;;;;;;;54.83;6.07;;;;;;;;;;5037146;28;20247;-66
2023/02/04 06:19:56;;;;;;;42.90;5.28;;;;;;;;;;5043338;28;20224;-66
2023/02/04 06:22:23;;;;;;;47.47;5.60;;;;;;;;;;5031811;28;20214;-67
2023/02/04 06:24:48;;;;;;;39.40;4.90;;;;;;;;;;5038086;28;20202;-66
2023/02/04 06:27:21;;;;;;;44.60;5.60;;;;;;;;;;5038487;28;20194;-66
2023/02/04 06:29:48;;;;;;;51.88;5.72;;;;;;;;;;5038673;28;20194;-66
2023/02/04 06:32:13;;;;;;;48.55;5.82;;;;;;;;;;5032217;28;20274;-66
2023/02/04 06:34:39;;;;;;;40.33;4.95;;;;;;;;;;5041696;28;20237;-66
2023/02/04 06:37:04;;;;;;;42.20;6.32;;;;;;;;;;5037761;28;20199;-66
2023/02/04 06:39:29;;;;;;;46.95;6.05;;;;;;;;;;5032303;28;20271;-66
2023/02/04 06:41:55;;;;;;;58.38;6.85;;;;;;;;;;5033655;28;20209;-66
2023/02/04 06:44:20;;;;;;;35.80;4.63;;;;;;;;;;5041399;28;20189;-66
2023/02/04 06:46:46;;;;;;;46.63;6.30;;;;;;;;;;5035393;28;20186;-66
2023/02/04 06:49:11;;;;;;;42.75;8.25;;;;;;;;;;5042172;28;20255;-66
2023/02/04 06:51:36;;;;;;;40.10;6.45;;;;;;;;;;5040430;28;20190;-66
2023/02/04 06:54:02;;;;;;;44.50;5.05;;;;;;;;;;5038504;28;20204;-66
2023/02/04 06:56:28;;;;;;;41.03;4.90;;;;;;;;;;5039553;28;20295;-66
2023/02/04 06:58:53;;;;;;;41.78;5.70;;;;;;;;;;5043793;28;20652;-66
2023/02/04 07:01:19;;;;;;;42.80;5.67;;;;;;;;;;5041632;28;20291;-67
2023/02/04 07:03:44;;;;;;;46.83;6.50;;;;;;;;;;5037394;28;20193;-66
2023/02/04 07:06:10;;;;;;;38.85;5.63;;;;;;;;;;5039485;28;20474;-66
2023/02/04 07:08:35;;;;;;;37.90;5.30;;;;;;;;;;5041145;28;20303;-66
2023/02/04 07:11:00;;;;;;;40.55;5.07;;;;;;;;;;5037846;28;20197;-66
2023/02/04 07:13:26;;;;;;;39.15;5.57;;;;;;;;;;5039322;28;20201;-67
2023/02/04 07:15:51;;;;;;;38.92;4.78;;;;;;;;;;5037777;28;20200;-67
2023/02/04 07:18:18;;;;;;;34.67;4.30;;;;;;;;;;5037389;28;20606;-66
2023/02/04 07:20:44;;;;;;;42.58;5.03;;;;;;;;;;5031591;28;20283;-66
2023/02/04 07:23:09;;;;;;;29.73;4.22;;;;;;;;;;5020654;28;20255;-66
2023/02/04 07:25:35;;;;;;;32.67;4.28;;;;;;;;;;5024930;28;20201;-66
2023/02/04 07:28:02;;;;;;;41.90;4.67;;;;;;;;;;5031740;28;20197;-66
2023/02/04 07:30:28;;;;;;;36.60;4.57;;;;;;;;;;5032902;28;20202;-66
2023/02/04 07:32:53;;;;;;;40.15;5.35;;;;;;;;;;5030348;28;20647;-66
2023/02/04 07:35:19;;;;;;;34.80;4.70;;;;;;;;;;5039334;28;20269;-66
2023/02/04 07:37:44;;;;;;;37.10;7.03;;;;;;;;;;5026421;28;20186;-66
2023/02/04 07:40:11;;;;;;;38.90;6.05;;;;;;;;;;5036414;28;20196;-66
2023/02/04 07:42:36;;;;;;;42.08;5.75;;;;;;;;;;5027662;28;20268;-67
2023/02/04 07:45:01;;;;;;;52.28;5.78;;;;;;;;;;5038679;28;20194;-66
2023/02/04 07:47:27;;;;;;;50.20;6.65;;;;;;;;;;5027876;28;20204;-67
2023/02/04 07:49:55;;;;;;;45.97;5.50;;;;;;;;;;5026656;28;20189;-66
2023/02/04 07:52:21;;;;;;;37.50;5.78;;;;;;;;;;5035058;28;20182;-66
2023/02/04 07:54:47;;;;;;;40.00;6.03;;;;;;;;;;5038932;28;20213;-66
2023/02/04 07:57:12;;;;;;;52.30;6.55;;;;;;;;;;5014636;28;20221;-66
2023/02/04 07:59:38;;;;;;;42.90;5.32;;;;;;;;;;5028345;28;20194;-66
2023/02/04 08:02:03;;;;;;;45.45;6.10;;;;;;;;;;5037245;28;20205;-66
2023/02/04 08:04:28;;;;;;;56.00;6.47;;;;;;;;;;5038070;28;20720;-66
2023/02/04 08:06:54;;;;;;;43.08;6.68;;;;;;;;;;5038663;28;20191;-67
2023/02/04 08:09:19;;;;;;;53.05;6.72;;;;;;;;;;5032276;28;20199;-66
2023/02/04 08:11:45;;;;;;;44.25;6.82;;;;;;;;;;5041061;28;20179;-66
2023/02/04 08:14:10;;;;;;;53.53;7.80;;;;;;;;;;5047788;28;20486;-66
2023/02/04 08:16:35;;;;;;;53.22;6.57;;;;;;;;;;5039938;28;20576;-66
2023/02/04 08:19:01;;;;;;;49.38;6.30;;;;;;;;;;5027801;28;20197;-66
2023/02/04 08:21:26;;;;;;;51.53;7.22;;;;;;;;;;5037977;28;20283;-66
2023/02/04 08:23:51;;;;;;;47.97;6.03;;;;;;;;;;5043061;28;20292;-66
2023/02/04 08:26:17;;;;;;;36.38;6.18;;;;;;;;;;5047782;28;20201;-66
2023/02/04 08:28:42;;;;;;;46.33;6.10;;;;;;;;;;5041659;28;20276;-67
2023/02/04 08:31:11;;;;;;;48.78;6.95;;;;;;;;;;5045261;28;20177;-66
2023/02/04 08:33:37;;;;;;;40.20;6.70;;;;;;;;;;5041085;28;20248;-66
2023/02/04 08:36:05;;;;;;;41.58;5.68;;;;;;;;;;5042960;28;20272;-67
2023/02/04 08:38:30;;;;;;;29.95;5.70;;;;;;;;;;5041112;28;20209;-67
2023/02/04 08:40:56;;;;;;;53.88;6.32;;;;;;;;;;5043353;28;20746;-66
2023/02/04 08:43:21;;;;;;;35.58;5.93;;;;;;;;;;5043414;28;20205;-66
2023/02/04 08:45:46;;;;;;;42.75;5.88;;;;;;;;;;5038185;28;20186;-66
2023/02/04 08:48:12;;;;;;;37.33;5.82;;;;;;;;;;5027993;28;20566;-67
2023/02/04 08:50:37;;;;;;;35.72;6.05;;;;;;;;;;5034256;28;20214;-66
2023/02/04 08:53:03;;;;;;;50.77;7.07;;;;;;;;;;5026557;28;20193;-66
2023/02/04 08:55:28;;;;;;;47.30;7.05;;;;;;;;;;5038173;28;20498;-67
2023/02/04 08:57:53;;;;;;;32.75;5.40;;;;;;;;;;5028594;28;20197;-66
2023/02/04 09:00:19;;;;;;;47.25;6.30;;;;;;;;;;5029506;28;20455;-66
2023/02/04 09:02:44;;;;;;;60.90;7.10;;;;;;;;;;5022258;28;20230;-66
2023/02/04 09:05:10;;;;;;;48.33;6.63;;;;;;;;;;5024258;28;20190;-66
2023/02/04 09:07:35;;;;;;;52.00;8.02;;;;;;;;;;5023005;28;20234;-65
2023/02/04 09:10:01;;;;;;;51.42;7.28;;;;;;;;;;5022998;28;20194;-67
2023/02/04 09:12:26;;;;;;;58.65;7.25;;;;;;;;;;5027142;28;20562;-66
2023/02/04 09:14:51;;;;;;;44.70;6.85;;;;;;;;;;5022976;28;20195;-66
2023/02/04 09:17:17;;;;;;;47.85;7.25;;;;;;;;;;5028851;28;20599;-66
2023/02/04 09:19:43;;;;;;;42.35;6.40;;;;;;;;;;5026167;28;20182;-66
2023/02/04 09:22:08;;;;;;;48.70;6.13;;;;;;;;;;5042101;28;20207;-67
2023/02/04 09:24:34;;;;;;;52.40;6.53;;;;;;;;;;5035388;28;20205;-67
2023/02/04 09:26:59;;;;;;;47.25;6.47;;;;;;;;;;5024284;28;20216;-66
2023/02/04 09:29:24;;;;;;;53.88;6.68;;;;;;;;;;5019879;28;20194;-66
2023/02/04 09:31:50;;;;;;;42.08;6.78;;;;;;;;;;5022111;28;20233;-66
2023/02/04 09:34:15;;;;;;;44.30;6.80;;;;;;;;;;5019603;28;20189;-66
2023/02/04 09:36:41;;;;;;;42.10;6.32;;;;;;;;;;5026704;28;20546;-66
2023/02/04 09:39:08;;;;;;;45.35;6.45;;;;;;;;;;5022911;28;20305;-66
2023/02/04 09:41:35;;;;;;;36.50;6.43;;;;;;;;;;5025665;28;20247;-66
2023/02/04 09:44:03;;;;;;;37.45;6.35;;;;;;;;;;5027290;28;20255;-66
2023/02/04 09:46:29;;;;;;;43.28;6.45;;;;;;;;;;5037384;28;20247;-66
2023/02/04 09:48:57;;;;;;;38.63;6.00;;;;;;;;;;5036787;28;20304;-66
2023/02/04 09:51:26;;;;;;;44.35;6.18;;;;;;;;;;5031374;28;20555;-66
2023/02/04 09:53:54;;;;;;;37.15;7.18;;;;;;;;;;5036874;28;20207;-66
2023/02/04 09:56:19;;;;;;;36.25;5.38;;;;;;;;;;5043846;28;20231;-66
2023/02/04 09:58:45;;;;;;;39.55;5.10;;;;;;;;;;5038214;28;20656;-66
2023/02/04 10:01:17;;;;;;;40.00;5.95;;;;;;;;;;5035704;28;20287;-66
2023/02/04 10:03:48;;;;;;;37.83;5.55;;;;;;;;;;5029676;28;20198;-66
2023/02/04 10:06:15;;;;;;;41.92;6.05;;;;;;;;;;5044148;28;20631;-65
2023/02/04 10:08:42;;;;;;;39.15;6.70;;;;;;;;;;5039134;28;20186;-66
2023/02/04 10:11:08;;;;;;;36.13;6.10;;;;;;;;;;5041324;28;20186;-65
2023/02/04 10:13:37;;;;;;;42.80;5.90;;;;;;;;;;5033684;28;20193;-66
2023/02/04 10:16:09;;;;;;;31.58;5.68;;;;;;;;;;5031060;28;20201;-67
2023/02/04 10:18:35;;;;;;;36.90;6.63;;;;;;;;;;5026990;28;20228;-66
2023/02/04 10:21:25;;;;;;;48.75;5.30;;;;;;;;;;5018917;28;20201;-66
2023/02/04 10:23:55;;;;;;;39.05;5.95;;;;;;;;;;5032132;28;20662;-67
2023/02/04 10:26:22;;;;;;;24.42;5.32;;;;;;;;;;5014079;28;20190;-67
2023/02/04 10:28:48;;;;;;;43.90;5.97;;;;;;;;;;5031936;28;20539;-67
2023/02/04 10:31:39;;;;;;;40.13;6.10;;;;;;;;;;5028066;28;20182;-67
2023/02/04 10:34:14;;;;;;;37.45;6.90;;;;;;;;;;5010490;28;20273;-66
2023/02/04 10:36:42;;;;;;;33.40;5.75;;;;;;;;;;5026231;28;20673;-67
2023/02/04 10:39:23;;;;;;;35.90;6.43;;;;;;;;;;5036148;28;20616;-67
2023/02/04 10:41:54;;;;;;;36.67;6.32;;;;;;;;;;5039041;28;20221;-66
2023/02/04 10:44:28;;;;;;;38.45;6.05;;;;;;;;;;5037362;28;20569;-67
2023/02/04 10:47:05;;;;;;;30.25;5.72;;;;;;;;;;5036310;28;20645;-67
2023/02/04 10:49:31;;;;;;;28.58;5.18;;;;;;;;;;5030568;28;20224;-66
2023/02/04 10:51:57;;;;;;;34.20;5.35;;;;;;;;;;5027833;28;20186;-66
2023/02/04 10:54:29;;;;;;;39.95;6.03;;;;;;;;;;5030928;28;20200;-66
2023/02/04 10:57:02;;;;;;;26.50;4.82;;;;;;;;;;5045879;28;20189;-66
2023/02/04 10:59:28;;;;;;;34.38;5.65;;;;;;;;;;5043862;28;20556;-66
2023/02/04 11:01:59;;;;;;;29.00;5.03;;;;;;;;;;5039758;28;20300;-67
2023/02/04 11:04:25;;;;;;;32.70;5.93;;;;;;;;;;5042802;28;20633;-67
2023/02/04 11:06:52;;;;;;;36.95;5.43;;;;;;;;;;5015048;28;20271;-67
2023/02/04 11:09:17;;;;;;;38.45;5.57;;;;;;;;;;5015536;28;20197;-67
2023/02/04 11:11:48;;;;;;;26.02;4.43;;;;;;;;;;5018316;28;20194;-67
2023/02/04 11:14:26;;;;;;;37.63;5.88;;;;;;;;;;5016957;28;20206;-67
2023/02/04 11:16:53;;;;;;;24.42;4.13;;;;;;;;;;5016800;28;20206;-67
2023/02/04 11:19:37;;;;;;;20.23;3.92;;;;;;;;;;5028613;28;20181;-67
2023/02/04 11:22:24;;;;;;;23.20;4.38;;;;;;;;;;5032282;28;20283;-67
2023/02/04 11:24:50;;;;;;;32.78;4.32;;;;;;;;;;5017497;28;20274;-67
2023/02/04 11:27:24;;;;;;;24.67;4.57;;;;;;;;;;5021780;28;21089;-67
2023/02/04 11:29:49;;;;;;;19.40;4.10;;;;;;;;;;5012403;28;20672;-67
2023/02/04 11:32:36;;;;;;;20.60;4.13;;;;;;;;;;5022666;28;20214;-67
2023/02/04 11:35:19;;;;;;;24.50;4.40;;;;;;;;;;5018611;28;20551;-66
2023/02/04 11:37:45;;;;;;;22.27;4.53;;;;;;;;;;5031518;28;20598;-67
2023/02/04 11:40:21;;;;;;;29.33;4.38;;;;;;;;;;5016508;28;20333;-66
2023/02/04 11:42:47;;;;;;;28.15;4.80;;;;;;;;;;5022726;28;20201;-66
2023/02/04 11:45:16;;;;;;;24.90;4.32;;;;;;;;;;5020846;28;20216;-66
2023/02/04 11:47:43;;;;;;;29.20;4.82;;;;;;;;;;5034510;28;20185;-66
2023/02/04 11:50:33;;;;;;;32.22;5.57;;;;;;;;;;5040378;28;20209;-66
2023/02/04 11:53:03;;;;;;;25.55;4.70;;;;;;;;;;5037822;28;20189;-66
2023/02/04 11:55:30;;;;;;;27.00;4.60;;;;;;;;;;5042069;28;20628;-67
2023/02/04 11:57:56;;;;;;;34.08;5.47;;;;;;;;;;5044909;28;20915;-66
2023/02/04 12:00:25;;;;;;;33.85;5.60;;;;;;;;;;5044698;28;20212;-66
2023/02/04 12:03:19;;;;;;;27.63;4.95;;;;;;;;;;5043362;28;20243;-66
2023/02/04 12:05:48;;;;;;;37.72;5.18;;;;;;;;;;5029017;28;20268;-66
2023/02/04 12:08:30;;;;;;;34.65;5.47;;;;;;;;;;5021487;28;20277;-67
2023/02/04 12:11:30;;;;;;;25.27;4.60;;;;;;;;;;5029334;28;20596;-67
2023/02/04 12:13:58;;;;;;;30.63;4.95;;;;;;;;;;5017907;28;20197;-65
2023/02/04 12:16:25;;;;;;;23.85;4.95;;;;;;;;;;5028978;28;20431;-65
2023/02/04 12:18:50;;;;;;;31.05;4.85;;;;;;;;;;5022025;28;20675;-66
2023/02/04 12:21:20;;;;;;;32.70;5.18;;;;;;;;;;5020903;28;20312;-65
2023/02/04 12:23:45;;;;;;;27.55;5.32;;;;;;;;;;5029509;28;20213;-65
2023/02/04 12:26:11;;;;;;;38.40;5.05;;;;;;;;;;5031511;28;20600;-65
2023/02/04 12:28:36;;;;;;;37.53;5.72;;;;;;;;;;5042085;28;20637;-65
2023/02/04 12:31:02;;;;;;;30.90;4.93;;;;;;;;;;5018113;28;20201;-66
2023/02/04 12:33:27;;;;;;;39.95;5.63;;;;;;;;;;5033659;28;20213;-66
2023/02/04 12:35:53;;;;;;;26.20;4.80;;;;;;;;;;5032726;28;20668;-66
2023/02/04 12:38:18;;;;;;;34.45;4.97;;;;;;;;;;5032550;28;20272;-65
2023/02/04 12:40:45;;;;;;;30.50;4.38;;;;;;;;;;5027834;28;20204;-66
2023/02/04 12:43:10;;;;;;;23.60;4.97;;;;;;;;;;5035521;28;20205;-66
2023/02/04 12:45:37;;;;;;;27.60;4.22;;;;;;;;;;5026715;28;20205;-65
2023/02/04 12:48:02;;;;;;;30.85;5.07;;;;;;;;;;5025288;28;20240;-65
2023/02/04 12:50:28;;;;;;;27.52;4.63;;;;;;;;;;5029783;28;20634;-65
2023/02/04 12:52:56;;;;;;;28.80;5.53;;;;;;;;;;5047690;28;20199;-66
2023/02/04 12:55:23;;;;;;;23.40;4.22;;;;;;;;;;5024373;28;20221;-66
2023/02/04 12:57:49;;;;;;;33.08;5.43;;;;;;;;;;5032554;28;20232;-66
2023/02/04 13:00:19;;;;;;;32.65;5.05;;;;;;;;;;5029499;28;20217;-66
2023/02/04 13:02:44;;;;;;;35.33;5.22;;;;;;;;;;5030509;28;20272;-66
2023/02/04 13:05:11;;;;;;;28.95;6.13;;;;;;;;;;5028354;28;20194;-67
2023/02/04 13:07:38;;;;;;;24.35;4.88;;;;;;;;;;5032112;28;20193;-67
2023/02/04 13:10:03;;;;;;;25.35;4.93;;;;;;;;;;5031294;28;20201;-65
2023/02/04 13:12:29;;;;;;;27.02;5.68;;;;;;;;;;5038080;28;20199;-67
2023/02/04 13:14:54;;;;;;;31.83;5.20;;;;;;;;;;5035447;28;20719;-66
2023/02/04 13:17:20;;;;;;;26.48;4.68;;;;;;;;;;5029337;28;20625;-65
2023/02/04 13:19:45;;;;;;;21.65;4.53;;;;;;;;;;5035467;28;20186;-65
2023/02/04 13:22:11;;;;;;;27.45;4.45;;;;;;;;;;5029053;28;20217;-66
2023/02/04 13:24:36;;;;;;;26.00;5.13;;;;;;;;;;5031397;28;20201;-66
2023/02/04 13:27:01;;;;;;;33.70;5.70;;;;;;;;;;5039408;28;20186;-66
2023/02/04 13:29:27;;;;;;;36.28;5.68;;;;;;;;;;5044231;28;20661;-66
2023/02/04 13:31:52;;;;;;;32.88;4.88;;;;;;;;;;5038236;28;20193;-66
2023/02/04 13:34:18;;;;;;;28.90;4.68;;;;;;;;;;5037542;28;20193;-66
2023/02/04 13:36:44;;;;;;;31.38;5.00;;;;;;;;;;5038513;28;20208;-66
2023/02/04 13:39:10;;;;;;;31.60;4.43;;;;;;;;;;5037567;28;20266;-66
2023/02/04 13:41:35;;;;;;;30.17;4.43;;;;;;;;;;5031945;28;20201;-65
2023/02/04 13:44:01;;;;;;;31.00;5.03;;;;;;;;;;5044966;28;20182;-65
2023/02/04 13:46:27;;;;;;;29.88;4.50;;;;;;;;;;5041213;28;20181;-66
2023/02/04 13:48:52;;;;;;;33.90;5.20;;;;;;;;;;5034243;28;20198;-67
2023/02/04 13:51:18;;;;;;;26.10;4.07;;;;;;;;;;5045601;28;20328;-66
2023/02/04 13:53:43;;;;;;;31.30;4.68;;;;;;;;;;5040783;28;20556;-66
2023/02/04 13:56:09;;;;;;;34.50;4.88;;;;;;;;;;5043869;28;20225;-66
2023/02/04 13:58:35;;;;;;;28.73;5.15;;;;;;;;;;5040843;28;21361;-66
2023/02/04 14:01:00;;;;;;;34.53;4.90;;;;;;;;;;5040628;28;20747;-66
2023/02/04 14:03:27;;;;;;;27.70;4.85;;;;;;;;;;5039268;28;20311;-66
2023/02/04 14:05:53;;;;;;;34.40;4.97;;;;;;;;;;5042544;28;20185;-66
2023/02/04 14:08:20;;;;;;;28.02;5.20;;;;;;;;;;5045796;28;20676;-67
2023/02/04 14:10:45;;;;;;;27.00;4.63;;;;;;;;;;5043491;28;20193;-66
2023/02/04 14:13:11;;;;;;;25.27;3.72;;;;;;;;;;5041636;28;20200;-66
2023/02/04 14:15:37;;;;;;;25.10;4.53;;;;;;;;;;5042626;28;20311;-66
2023/02/04 14:18:03;;;;;;;22.38;4.40;;;;;;;;;;5043203;28;20189;-66
2023/02/04 14:20:30;;;;;;;21.83;4.68;;;;;;;;;;5042112;28;20273;-65
2023/02/04 14:22:55;;;;;;;22.92;4.65;;;;;;;;;;5044052;28;20209;-67
2023/02/04 14:25:21;;;;;;;26.88;5.18;;;;;;;;;;5042167;28;20185;-66
2023/02/04 14:27:46;;;;;;;34.53;5.22;;;;;;;;;;5047601;28;20181;-66
2023/02/04 14:30:19;;;;;;;24.55;4.05;;;;;;;;;;5043783;28;20279;-66